Spur, Texas
Current Conditions -  °F | °C
As of 2:15 AM on Monday 24 Nov 2014 (Local Time) from KSNK Reporting Station
Clear Clear  
Wind Chill: 30°   Ceiling: Unl
Heat Index: 35°   Visibility: 10mi
Dew Point: 30°   Wind: 6mph
Humidity: 81%   Direction: 270°W
Pressure: 30"   Gusts: NA
Location:  33.48°N, 100.86°W
Report Text: KSNK 240815Z AUTO 27005KT 10SM CLR 02/M01 A3000 RMK AO2 T00181012
Loading
Personal Weather Stations






























Interactive Weather Map New forecast layout! Learn more

10-Day Weather Forecast

Advertisements
Track Severe Weather on mobile